sensor_id;sensor_type;location;lat;lon;timestamp;P1;durP1;ratioP1;P2;durP2;ratioP2
1987;SDS011;12775;46.994;15.498;2022-09-12T00:02:24;1.16;;;1.02;;
1987;SDS011;12775;46.994;15.498;2022-09-12T00:04:50;1.24;;;1.14;;
1987;SDS011;12775;46.994;15.498;2022-09-12T00:07:17;1.10;;;0.64;;
1987;SDS011;12775;46.994;15.498;2022-09-12T00:09:45;1.10;;;1.00;;
1987;SDS011;12775;46.994;15.498;2022-09-12T00:12:12;1.20;;;0.74;;
1987;SDS011;12775;46.994;15.498;2022-09-12T00:14:40;1.26;;;1.12;;
1987;SDS011;12775;46.994;15.498;2022-09-12T00:17:07;1.22;;;1.00;;
1987;SDS011;12775;46.994;15.498;2022-09-12T00:19:34;0.98;;;0.88;;
1987;SDS011;12775;46.994;15.498;2022-09-12T00:22:01;1.54;;;1.44;;
1987;SDS011;12775;46.994;15.498;2022-09-12T00:24:29;1.24;;;1.14;;
1987;SDS011;12775;46.994;15.498;2022-09-12T00:26:56;1.30;;;1.12;;
1987;SDS011;12775;46.994;15.498;2022-09-12T00:29:23;3.04;;;1.32;;
1987;SDS011;12775;46.994;15.498;2022-09-12T00:31:51;1.26;;;1.10;;
1987;SDS011;12775;46.994;15.498;2022-09-12T00:34:18;1.74;;;1.28;;
1987;SDS011;12775;46.994;15.498;2022-09-12T00:36:46;1.66;;;1.26;;
1987;SDS011;12775;46.994;15.498;2022-09-12T00:39:14;0.80;;;0.80;;
1987;SDS011;12775;46.994;15.498;2022-09-12T00:41:40;1.74;;;1.30;;
1987;SDS011;12775;46.994;15.498;2022-09-12T00:44:42;1.30;;;1.20;;
1987;SDS011;12775;46.994;15.498;2022-09-12T00:47:14;1.40;;;1.24;;
1987;SDS011;12775;46.994;15.498;2022-09-12T00:52:23;1.54;;;1.44;;
1987;SDS011;12775;46.994;15.498;2022-09-12T00:54:51;0.88;;;0.88;;
1987;SDS011;12775;46.994;15.498;2022-09-12T00:57:17;2.96;;;1.18;;
1987;SDS011;12775;46.994;15.498;2022-09-12T00:59:47;1.30;;;1.20;;
1987;SDS011;12775;46.994;15.498;2022-09-12T01:02:14;0.90;;;0.80;;
1987;SDS011;12775;46.994;15.498;2022-09-12T01:04:41;3.16;;;1.02;;
1987;SDS011;12775;46.994;15.498;2022-09-12T01:07:08;1.20;;;1.10;;
1987;SDS011;12775;46.994;15.498;2022-09-12T01:09:34;0.90;;;0.90;;
1987;SDS011;12775;46.994;15.498;2022-09-12T01:12:02;1.22;;;0.96;;
1987;SDS011;12775;46.994;15.498;2022-09-12T01:14:29;2.42;;;1.08;;
1987;SDS011;12775;46.994;15.498;2022-09-12T01:16:56;2.34;;;1.34;;
1987;SDS011;12775;46.994;15.498;2022-09-12T01:19:33;1.66;;;1.00;;
1987;SDS011;12775;46.994;15.498;2022-09-12T01:22:07;2.36;;;1.90;;
1987;SDS011;12775;46.994;15.498;2022-09-12T01:27:52;2.74;;;1.14;;
1987;SDS011;12775;46.994;15.498;2022-09-12T01:30:23;1.40;;;1.30;;
1987;SDS011;12775;46.994;15.498;2022-09-12T01:33:24;1.32;;;1.22;;
1987;SDS011;12775;46.994;15.498;2022-09-12T01:35:38;2.10;;;1.00;;
1987;SDS011;12775;46.994;15.498;2022-09-12T01:38:22;1.14;;;0.96;;
1987;SDS011;12775;46.994;15.498;2022-09-12T01:41:08;3.90;;;1.86;;
1987;SDS011;12775;46.994;15.498;2022-09-12T01:43:43;1.72;;;1.20;;
1987;SDS011;12775;46.994;15.498;2022-09-12T01:46:14;1.24;;;1.14;;
1987;SDS011;12775;46.994;15.498;2022-09-12T01:48:45;1.20;;;1.10;;
1987;SDS011;12775;46.994;15.498;2022-09-12T01:51:15;1.36;;;1.26;;
1987;SDS011;12775;46.994;15.498;2022-09-12T01:53:43;1.04;;;0.98;;
1987;SDS011;12775;46.994;15.498;2022-09-12T01:56:11;1.92;;;0.84;;
1987;SDS011;12775;46.994;15.498;2022-09-12T01:58:40;1.28;;;1.18;;
1987;SDS011;12775;46.994;15.498;2022-09-12T02:01:09;1.20;;;1.06;;
1987;SDS011;12775;46.994;15.498;2022-09-12T02:03:39;1.04;;;1.04;;
1987;SDS011;12775;46.994;15.498;2022-09-12T02:06:07;1.20;;;1.10;;
1987;SDS011;12775;46.994;15.498;2022-09-12T02:08:38;1.42;;;1.04;;
1987;SDS011;12775;46.994;15.498;2022-09-12T02:11:06;1.96;;;1.00;;
1987;SDS011;12775;46.994;15.498;2022-09-12T02:13:36;2.02;;;0.92;;
1987;SDS011;12775;46.994;15.498;2022-09-12T02:16:12;1.08;;;0.98;;
1987;SDS011;12775;46.994;15.498;2022-09-12T02:18:38;5.02;;;0.94;;
1987;SDS011;12775;46.994;15.498;2022-09-12T02:21:05;2.30;;;1.10;;
1987;SDS011;12775;46.994;15.498;2022-09-12T02:23:32;2.96;;;1.08;;
1987;SDS011;12775;46.994;15.498;2022-09-12T02:26:02;1.12;;;1.00;;
1987;SDS011;12775;46.994;15.498;2022-09-12T02:28:29;0.80;;;0.80;;
1987;SDS011;12775;46.994;15.498;2022-09-12T02:31:00;4.86;;;1.20;;
1987;SDS011;12775;46.994;15.498;2022-09-12T02:33:31;0.76;;;0.76;;
1987;SDS011;12775;46.994;15.498;2022-09-12T02:35:57;3.72;;;0.98;;
1987;SDS011;12775;46.994;15.498;2022-09-12T02:38:26;4.20;;;0.96;;
1987;SDS011;12775;46.994;15.498;2022-09-12T02:40:52;1.08;;;0.98;;
1987;SDS011;12775;46.994;15.498;2022-09-12T02:43:19;0.96;;;0.84;;
1987;SDS011;12775;46.994;15.498;2022-09-12T02:45:47;2.38;;;1.08;;
1987;SDS011;12775;46.994;15.498;2022-09-12T02:48:17;4.92;;;0.94;;
1987;SDS011;12775;46.994;15.498;2022-09-12T02:50:42;1.14;;;1.04;;
1987;SDS011;12775;46.994;15.498;2022-09-12T02:53:10;0.96;;;0.90;;
1987;SDS011;12775;46.994;15.498;2022-09-12T02:55:38;1.04;;;0.80;;
1987;SDS011;12775;46.994;15.498;2022-09-12T02:58:05;1.70;;;0.88;;
1987;SDS011;12775;46.994;15.498;2022-09-12T03:00:35;2.34;;;1.22;;
1987;SDS011;12775;46.994;15.498;2022-09-12T03:03:07;1.96;;;1.36;;
1987;SDS011;12775;46.994;15.498;2022-09-12T03:05:46;1.24;;;1.10;;
1987;SDS011;12775;46.994;15.498;2022-09-12T03:08:14;1.52;;;0.98;;
1987;SDS011;12775;46.994;15.498;2022-09-12T03:10:44;0.82;;;0.74;;
1987;SDS011;12775;46.994;15.498;2022-09-12T03:16:05;1.36;;;1.26;;
1987;SDS011;12775;46.994;15.498;2022-09-12T03:18:50;8.66;;;1.42;;
1987;SDS011;12775;46.994;15.498;2022-09-12T03:21:21;1.10;;;1.00;;
1987;SDS011;12775;46.994;15.498;2022-09-12T03:23:57;1.54;;;1.00;;
1987;SDS011;12775;46.994;15.498;2022-09-12T03:26:21;1.66;;;1.22;;
1987;SDS011;12775;46.994;15.498;2022-09-12T03:28:47;0.70;;;0.68;;
1987;SDS011;12775;46.994;15.498;2022-09-12T03:31:15;1.54;;;1.42;;
1987;SDS011;12775;46.994;15.498;2022-09-12T03:33:42;1.54;;;1.10;;
1987;SDS011;12775;46.994;15.498;2022-09-12T03:36:16;2.12;;;1.10;;
1987;SDS011;12775;46.994;15.498;2022-09-12T03:38:42;2.32;;;1.52;;
1987;SDS011;12775;46.994;15.498;2022-09-12T03:41:10;1.20;;;1.10;;
1987;SDS011;12775;46.994;15.498;2022-09-12T03:43:38;1.80;;;1.10;;
1987;SDS011;12775;46.994;15.498;2022-09-12T03:46:05;2.78;;;1.24;;
1987;SDS011;12775;46.994;15.498;2022-09-12T03:48:34;2.92;;;1.60;;
1987;SDS011;12775;46.994;15.498;2022-09-12T03:51:02;1.58;;;1.18;;
1987;SDS011;12775;46.994;15.498;2022-09-12T03:53:29;1.38;;;1.28;;
1987;SDS011;12775;46.994;15.498;2022-09-12T03:55:57;0.96;;;0.90;;
1987;SDS011;12775;46.994;15.498;2022-09-12T03:58:28;4.24;;;1.36;;
1987;SDS011;12775;46.994;15.498;2022-09-12T04:00:52;2.10;;;1.26;;
1987;SDS011;12775;46.994;15.498;2022-09-12T04:03:19;1.36;;;1.24;;
1987;SDS011;12775;46.994;15.498;2022-09-12T04:05:47;2.68;;;1.94;;
1987;SDS011;12775;46.994;15.498;2022-09-12T04:08:15;4.08;;;1.66;;
1987;SDS011;12775;46.994;15.498;2022-09-12T04:10:42;3.24;;;1.30;;
1987;SDS011;12775;46.994;15.498;2022-09-12T04:13:09;5.40;;;1.62;;
1987;SDS011;12775;46.994;15.498;2022-09-12T04:15:37;2.76;;;1.04;;
1987;SDS011;12775;46.994;15.498;2022-09-12T04:18:04;1.58;;;1.08;;
1987;SDS011;12775;46.994;15.498;2022-09-12T04:20:31;1.58;;;1.10;;
1987;SDS011;12775;46.994;15.498;2022-09-12T04:22:59;1.64;;;1.40;;
1987;SDS011;12775;46.994;15.498;2022-09-12T04:25:26;7.14;;;3.98;;
1987;SDS011;12775;46.994;15.498;2022-09-12T04:27:54;7.94;;;4.32;;
1987;SDS011;12775;46.994;15.498;2022-09-12T04:30:21;6.32;;;3.90;;
1987;SDS011;12775;46.994;15.498;2022-09-12T04:32:48;4.70;;;2.94;;
1987;SDS011;12775;46.994;15.498;2022-09-12T04:35:16;3.68;;;3.22;;
1987;SDS011;12775;46.994;15.498;2022-09-12T04:37:43;5.92;;;3.02;;
1987;SDS011;12775;46.994;15.498;2022-09-12T04:40:10;2.54;;;1.70;;
1987;SDS011;12775;46.994;15.498;2022-09-12T04:42:38;2.08;;;1.88;;
1987;SDS011;12775;46.994;15.498;2022-09-12T04:45:05;1.26;;;1.16;;
1987;SDS011;12775;46.994;15.498;2022-09-12T04:47:33;0.90;;;0.90;;
1987;SDS011;12775;46.994;15.498;2022-09-12T04:50:01;3.32;;;1.60;;
1987;SDS011;12775;46.994;15.498;2022-09-12T04:52:28;2.72;;;1.30;;
1987;SDS011;12775;46.994;15.498;2022-09-12T04:54:55;3.08;;;1.94;;
1987;SDS011;12775;46.994;15.498;2022-09-12T04:57:23;2.90;;;1.88;;
1987;SDS011;12775;46.994;15.498;2022-09-12T04:59:50;1.98;;;1.78;;
1987;SDS011;12775;46.994;15.498;2022-09-12T05:02:18;1.58;;;1.30;;
1987;SDS011;12775;46.994;15.498;2022-09-12T05:04:45;2.30;;;1.30;;
1987;SDS011;12775;46.994;15.498;2022-09-12T05:07:12;3.28;;;1.48;;
1987;SDS011;12775;46.994;15.498;2022-09-12T05:09:40;2.12;;;1.50;;
1987;SDS011;12775;46.994;15.498;2022-09-12T05:12:07;2.12;;;1.22;;
1987;SDS011;12775;46.994;15.498;2022-09-12T05:14:34;5.26;;;1.66;;
1987;SDS011;12775;46.994;15.498;2022-09-12T05:17:02;1.52;;;1.38;;
1987;SDS011;12775;46.994;15.498;2022-09-12T05:19:29;1.52;;;1.42;;
1987;SDS011;12775;46.994;15.498;2022-09-12T05:21:57;1.32;;;1.22;;
1987;SDS011;12775;46.994;15.498;2022-09-12T05:24:24;1.94;;;1.50;;
1987;SDS011;12775;46.994;15.498;2022-09-12T05:26:51;1.44;;;1.34;;
1987;SDS011;12775;46.994;15.498;2022-09-12T05:29:19;2.50;;;2.12;;
1987;SDS011;12775;46.994;15.498;2022-09-12T05:31:46;1.54;;;1.40;;
1987;SDS011;12775;46.994;15.498;2022-09-12T05:34:13;1.86;;;1.72;;
1987;SDS011;12775;46.994;15.498;2022-09-12T05:36:41;1.92;;;1.72;;
1987;SDS011;12775;46.994;15.498;2022-09-12T05:39:09;2.08;;;1.44;;
1987;SDS011;12775;46.994;15.498;2022-09-12T05:41:38;1.22;;;1.00;;
1987;SDS011;12775;46.994;15.498;2022-09-12T05:44:05;1.52;;;1.36;;
1987;SDS011;12775;46.994;15.498;2022-09-12T05:46:40;6.64;;;1.70;;
1987;SDS011;12775;46.994;15.498;2022-09-12T05:49:09;1.60;;;1.50;;
1987;SDS011;12775;46.994;15.498;2022-09-12T05:51:36;1.90;;;1.68;;
1987;SDS011;12775;46.994;15.498;2022-09-12T05:54:03;1.88;;;1.44;;
1987;SDS011;12775;46.994;15.498;2022-09-12T05:56:31;3.62;;;1.90;;
1987;SDS011;12775;46.994;15.498;2022-09-12T05:58:59;4.90;;;2.06;;
1987;SDS011;12775;46.994;15.498;2022-09-12T06:01:26;2.78;;;1.50;;
1987;SDS011;12775;46.994;15.498;2022-09-12T06:03:54;1.88;;;1.24;;
1987;SDS011;12775;46.994;15.498;2022-09-12T06:06:21;2.90;;;1.46;;
1987;SDS011;12775;46.994;15.498;2022-09-12T06:08:49;4.70;;;1.40;;
1987;SDS011;12775;46.994;15.498;2022-09-12T06:11:20;2.06;;;1.42;;
1987;SDS011;12775;46.994;15.498;2022-09-12T06:13:46;1.30;;;1.20;;
1987;SDS011;12775;46.994;15.498;2022-09-12T06:16:15;1.68;;;1.10;;
1987;SDS011;12775;46.994;15.498;2022-09-12T06:18:41;2.10;;;1.36;;
1987;SDS011;12775;46.994;15.498;2022-09-12T06:21:09;1.82;;;1.32;;
1987;SDS011;12775;46.994;15.498;2022-09-12T06:23:36;3.72;;;1.32;;
1987;SDS011;12775;46.994;15.498;2022-09-12T06:26:03;3.94;;;1.70;;
1987;SDS011;12775;46.994;15.498;2022-09-12T06:28:31;3.36;;;1.90;;
1987;SDS011;12775;46.994;15.498;2022-09-12T06:31:00;1.40;;;1.22;;
1987;SDS011;12775;46.994;15.498;2022-09-12T06:33:31;3.62;;;2.00;;
1987;SDS011;12775;46.994;15.498;2022-09-12T06:36:03;1.20;;;0.90;;
1987;SDS011;12775;46.994;15.498;2022-09-12T06:38:29;1.24;;;0.90;;
1987;SDS011;12775;46.994;15.498;2022-09-12T06:40:56;1.72;;;1.54;;
1987;SDS011;12775;46.994;15.498;2022-09-12T06:43:23;1.18;;;1.08;;
1987;SDS011;12775;46.994;15.498;2022-09-12T06:45:50;0.84;;;0.84;;
1987;SDS011;12775;46.994;15.498;2022-09-12T06:48:18;0.90;;;0.90;;
1987;SDS011;12775;46.994;15.498;2022-09-12T06:53:22;1.52;;;1.30;;
1987;SDS011;12775;46.994;15.498;2022-09-12T06:58:27;2.54;;;2.34;;
1987;SDS011;12775;46.994;15.498;2022-09-12T07:03:27;1.26;;;1.16;;
1987;SDS011;12775;46.994;15.498;2022-09-12T07:05:54;1.24;;;0.98;;
1987;SDS011;12775;46.994;15.498;2022-09-12T07:08:21;2.40;;;1.40;;
1987;SDS011;12775;46.994;15.498;2022-09-12T07:10:49;1.24;;;1.00;;
1987;SDS011;12775;46.994;15.498;2022-09-12T07:13:16;1.64;;;1.10;;
1987;SDS011;12775;46.994;15.498;2022-09-12T07:15:43;1.34;;;0.90;;
1987;SDS011;12775;46.994;15.498;2022-09-12T07:18:11;1.64;;;1.06;;
1987;SDS011;12775;46.994;15.498;2022-09-12T07:20:37;1.52;;;0.88;;
1987;SDS011;12775;46.994;15.498;2022-09-12T07:23:05;1.50;;;1.10;;
1987;SDS011;12775;46.994;15.498;2022-09-12T07:25:32;2.40;;;1.08;;
1987;SDS011;12775;46.994;15.498;2022-09-12T07:28:00;2.06;;;0.94;;
1987;SDS011;12775;46.994;15.498;2022-09-12T07:30:27;1.02;;;0.92;;
1987;SDS011;12775;46.994;15.498;2022-09-12T07:32:55;1.20;;;1.10;;
1987;SDS011;12775;46.994;15.498;2022-09-12T07:35:23;1.50;;;1.10;;
1987;SDS011;12775;46.994;15.498;2022-09-12T07:37:50;1.32;;;1.22;;
1987;SDS011;12775;46.994;15.498;2022-09-12T07:40:17;1.20;;;0.68;;
1987;SDS011;12775;46.994;15.498;2022-09-12T07:42:45;2.56;;;0.82;;
1987;SDS011;12775;46.994;15.498;2022-09-12T07:45:12;2.18;;;0.94;;
1987;SDS011;12775;46.994;15.498;2022-09-12T07:47:39;1.14;;;0.88;;
1987;SDS011;12775;46.994;15.498;2022-09-12T07:50:07;1.00;;;0.90;;
1987;SDS011;12775;46.994;15.498;2022-09-12T07:52:35;2.28;;;1.34;;
1987;SDS011;12775;46.994;15.498;2022-09-12T07:55:02;1.70;;;0.92;;
1987;SDS011;12775;46.994;15.498;2022-09-12T07:57:30;4.14;;;1.00;;
1987;SDS011;12775;46.994;15.498;2022-09-12T07:59:57;5.38;;;1.38;;
1987;SDS011;12775;46.994;15.498;2022-09-12T08:02:24;1.62;;;0.90;;
1987;SDS011;12775;46.994;15.498;2022-09-12T08:04:52;1.80;;;1.08;;
1987;SDS011;12775;46.994;15.498;2022-09-12T08:07:19;1.44;;;1.34;;
1987;SDS011;12775;46.994;15.498;2022-09-12T08:09:46;1.04;;;1.02;;
1987;SDS011;12775;46.994;15.498;2022-09-12T08:12:14;0.80;;;0.80;;
1987;SDS011;12775;46.994;15.498;2022-09-12T08:14:41;1.72;;;1.36;;
1987;SDS011;12775;46.994;15.498;2022-09-12T08:17:09;1.58;;;1.42;;
1987;SDS011;12775;46.994;15.498;2022-09-12T08:19:36;1.02;;;0.86;;
1987;SDS011;12775;46.994;15.498;2022-09-12T08:22:03;1.06;;;0.96;;
1987;SDS011;12775;46.994;15.498;2022-09-12T08:24:31;2.32;;;1.12;;
1987;SDS011;12775;46.994;15.498;2022-09-12T08:26:57;0.84;;;0.84;;
1987;SDS011;12775;46.994;15.498;2022-09-12T08:29:25;1.74;;;1.34;;
1987;SDS011;12775;46.994;15.498;2022-09-12T08:31:52;2.08;;;1.00;;
1987;SDS011;12775;46.994;15.498;2022-09-12T08:34:19;1.18;;;1.00;;
1987;SDS011;12775;46.994;15.498;2022-09-12T08:36:47;1.20;;;1.10;;
1987;SDS011;12775;46.994;15.498;2022-09-12T08:39:14;1.18;;;0.60;;
1987;SDS011;12775;46.994;15.498;2022-09-12T08:41:43;2.26;;;1.20;;
1987;SDS011;12775;46.994;15.498;2022-09-12T08:47:19;2.62;;;1.00;;
1987;SDS011;12775;46.994;15.498;2022-09-12T08:49:54;1.78;;;1.02;;
1987;SDS011;12775;46.994;15.498;2022-09-12T08:52:28;1.72;;;1.08;;
1987;SDS011;12775;46.994;15.498;2022-09-12T08:54:57;1.78;;;1.10;;
1987;SDS011;12775;46.994;15.498;2022-09-12T08:57:24;1.34;;;1.20;;
1987;SDS011;12775;46.994;15.498;2022-09-12T08:59:51;1.16;;;1.06;;
1987;SDS011;12775;46.994;15.498;2022-09-12T09:02:23;0.86;;;0.80;;
1987;SDS011;12775;46.994;15.498;2022-09-12T09:04:49;1.34;;;0.88;;
1987;SDS011;12775;46.994;15.498;2022-09-12T09:09:59;1.04;;;0.90;;
1987;SDS011;12775;46.994;15.498;2022-09-12T09:12:32;2.48;;;0.90;;
1987;SDS011;12775;46.994;15.498;2022-09-12T09:15:12;2.12;;;1.02;;
1987;SDS011;12775;46.994;15.498;2022-09-12T09:17:48;0.86;;;0.80;;
1987;SDS011;12775;46.994;15.498;2022-09-12T09:20:22;0.98;;;0.98;;
1987;SDS011;12775;46.994;15.498;2022-09-12T09:22:47;2.66;;;1.50;;
1987;SDS011;12775;46.994;15.498;2022-09-12T09:25:15;2.04;;;1.02;;
1987;SDS011;12775;46.994;15.498;2022-09-12T09:27:48;1.16;;;1.06;;
1987;SDS011;12775;46.994;15.498;2022-09-12T09:30:17;1.08;;;0.98;;
1987;SDS011;12775;46.994;15.498;2022-09-12T09:32:44;0.80;;;0.80;;
1987;SDS011;12775;46.994;15.498;2022-09-12T09:35:16;1.06;;;0.96;;
1987;SDS011;12775;46.994;15.498;2022-09-12T09:37:43;1.88;;;1.00;;
1987;SDS011;12775;46.994;15.498;2022-09-12T09:43:05;2.60;;;1.00;;
1987;SDS011;12775;46.994;15.498;2022-09-12T09:45:46;0.90;;;0.90;;
1987;SDS011;12775;46.994;15.498;2022-09-12T09:48:16;0.92;;;0.88;;
1987;SDS011;12775;46.994;15.498;2022-09-12T09:50:45;1.44;;;1.20;;
1987;SDS011;12775;46.994;15.498;2022-09-12T09:53:18;1.16;;;1.06;;
1987;SDS011;12775;46.994;15.498;2022-09-12T09:55:45;1.20;;;0.86;;
1987;SDS011;12775;46.994;15.498;2022-09-12T09:58:26;1.10;;;1.00;;
1987;SDS011;12775;46.994;15.498;2022-09-12T10:00:40;1.24;;;1.00;;
1987;SDS011;12775;46.994;15.498;2022-09-12T10:05:51;0.78;;;0.72;;
1987;SDS011;12775;46.994;15.498;2022-09-12T10:08:20;1.16;;;1.10;;
1987;SDS011;12775;46.994;15.498;2022-09-12T10:10:53;2.40;;;1.78;;
1987;SDS011;12775;46.994;15.498;2022-09-12T10:13:33;1.20;;;1.10;;
1987;SDS011;12775;46.994;15.498;2022-09-12T10:16:02;2.60;;;1.44;;
1987;SDS011;12775;46.994;15.498;2022-09-12T10:18:37;1.22;;;1.12;;
1987;SDS011;12775;46.994;15.498;2022-09-12T10:23:37;0.94;;;0.94;;
1987;SDS011;12775;46.994;15.498;2022-09-12T10:26:10;1.14;;;1.04;;
1987;SDS011;12775;46.994;15.498;2022-09-12T10:28:42;1.36;;;1.26;;
1987;SDS011;12775;46.994;15.498;2022-09-12T10:31:10;1.38;;;1.28;;
1987;SDS011;12775;46.994;15.498;2022-09-12T10:33:40;1.38;;;1.28;;
1987;SDS011;12775;46.994;15.498;2022-09-12T10:36:05;2.14;;;1.68;;
1987;SDS011;12775;46.994;15.498;2022-09-12T10:38:32;1.30;;;1.20;;
1987;SDS011;12775;46.994;15.498;2022-09-12T10:41:03;1.72;;;1.30;;
1987;SDS011;12775;46.994;15.498;2022-09-12T10:43:33;2.28;;;1.44;;
1987;SDS011;12775;46.994;15.498;2022-09-12T10:46:35;1.34;;;1.24;;
1987;SDS011;12775;46.994;15.498;2022-09-12T10:48:47;1.56;;;1.38;;
1987;SDS011;12775;46.994;15.498;2022-09-12T10:51:25;1.02;;;1.00;;
1987;SDS011;12775;46.994;15.498;2022-09-12T10:53:56;1.24;;;1.04;;
1987;SDS011;12775;46.994;15.498;2022-09-12T10:56:42;2.16;;;1.60;;
1987;SDS011;12775;46.994;15.498;2022-09-12T11:04:51;3.00;;;1.44;;
1987;SDS011;12775;46.994;15.498;2022-09-12T11:07:32;1.70;;;1.26;;
1987;SDS011;12775;46.994;15.498;2022-09-12T11:10:03;2.28;;;2.08;;
1987;SDS011;12775;46.994;15.498;2022-09-12T11:12:36;1.36;;;1.26;;
1987;SDS011;12775;46.994;15.498;2022-09-12T11:18:13;2.34;;;1.72;;
1987;SDS011;12775;46.994;15.498;2022-09-12T11:23:34;2.20;;;1.72;;
1987;SDS011;12775;46.994;15.498;2022-09-12T11:27:24;2.00;;;1.22;;
1987;SDS011;12775;46.994;15.498;2022-09-12T11:29:14;1.52;;;1.40;;
1987;SDS011;12775;46.994;15.498;2022-09-12T11:31:51;1.30;;;1.20;;
1987;SDS011;12775;46.994;15.498;2022-09-12T11:34:15;1.32;;;1.22;;
1987;SDS011;12775;46.994;15.498;2022-09-12T11:36:45;1.52;;;1.42;;
1987;SDS011;12775;46.994;15.498;2022-09-12T11:41:59;1.38;;;1.28;;
1987;SDS011;12775;46.994;15.498;2022-09-12T11:44:27;1.14;;;1.04;;
1987;SDS011;12775;46.994;15.498;2022-09-12T11:46:53;1.22;;;1.12;;
1987;SDS011;12775;46.994;15.498;2022-09-12T11:49:25;1.12;;;1.02;;
1987;SDS011;12775;46.994;15.498;2022-09-12T11:52:06;1.58;;;1.48;;
1987;SDS011;12775;46.994;15.498;2022-09-12T11:54:38;1.20;;;1.10;;
1987;SDS011;12775;46.994;15.498;2022-09-12T11:57:15;1.20;;;1.10;;
1987;SDS011;12775;46.994;15.498;2022-09-12T12:00:02;1.16;;;1.06;;
1987;SDS011;12775;46.994;15.498;2022-09-12T12:02:30;1.38;;;1.28;;
1987;SDS011;12775;46.994;15.498;2022-09-12T12:05:01;1.66;;;1.52;;
1987;SDS011;12775;46.994;15.498;2022-09-12T12:07:41;1.30;;;1.20;;
1987;SDS011;12775;46.994;15.498;2022-09-12T12:12:48;1.54;;;1.44;;
1987;SDS011;12775;46.994;15.498;2022-09-12T12:15:16;1.62;;;1.10;;
1987;SDS011;12775;46.994;15.498;2022-09-12T12:17:43;2.20;;;1.20;;
1987;SDS011;12775;46.994;15.498;2022-09-12T12:20:14;1.48;;;1.28;;
1987;SDS011;12775;46.994;15.498;2022-09-12T12:22:50;1.30;;;1.20;;
1987;SDS011;12775;46.994;15.498;2022-09-12T12:25:25;3.32;;;1.46;;
1987;SDS011;12775;46.994;15.498;2022-09-12T12:28:10;1.88;;;1.12;;
1987;SDS011;12775;46.994;15.498;2022-09-12T12:30:57;2.06;;;1.34;;
1987;SDS011;12775;46.994;15.498;2022-09-12T12:33:54;2.08;;;1.82;;
1987;SDS011;12775;46.994;15.498;2022-09-12T12:38:54;2.40;;;1.32;;
1987;SDS011;12775;46.994;15.498;2022-09-12T12:49:31;2.14;;;1.00;;
1987;SDS011;12775;46.994;15.498;2022-09-12T12:51:59;1.42;;;1.16;;
1987;SDS011;12775;46.994;15.498;2022-09-12T12:54:28;1.10;;;1.10;;
1987;SDS011;12775;46.994;15.498;2022-09-12T12:57:00;1.42;;;0.94;;
1987;SDS011;12775;46.994;15.498;2022-09-12T12:59:31;1.14;;;1.08;;
1987;SDS011;12775;46.994;15.498;2022-09-12T13:01:58;0.90;;;0.90;;
1987;SDS011;12775;46.994;15.498;2022-09-12T13:04:26;1.50;;;1.34;;
1987;SDS011;12775;46.994;15.498;2022-09-12T13:06:55;1.60;;;1.50;;
1987;SDS011;12775;46.994;15.498;2022-09-12T13:09:29;2.24;;;1.16;;
1987;SDS011;12775;46.994;15.498;2022-09-12T13:11:59;1.80;;;0.88;;
1987;SDS011;12775;46.994;15.498;2022-09-12T13:14:33;2.80;;;1.28;;
1987;SDS011;12775;46.994;15.498;2022-09-12T13:17:22;1.20;;;1.10;;
1987;SDS011;12775;46.994;15.498;2022-09-12T13:19:49;1.20;;;1.14;;
1987;SDS011;12775;46.994;15.498;2022-09-12T13:22:16;1.76;;;1.22;;
1987;SDS011;12775;46.994;15.498;2022-09-12T13:24:46;0.96;;;0.94;;
1987;SDS011;12775;46.994;15.498;2022-09-12T13:27:17;1.08;;;0.98;;
1987;SDS011;12775;46.994;15.498;2022-09-12T13:29:43;1.20;;;1.10;;
1987;SDS011;12775;46.994;15.498;2022-09-12T13:32:11;1.16;;;1.06;;
1987;SDS011;12775;46.994;15.498;2022-09-12T13:34:44;1.26;;;1.16;;
1987;SDS011;12775;46.994;15.498;2022-09-12T13:40:03;1.08;;;0.98;;
1987;SDS011;12775;46.994;15.498;2022-09-12T13:42:46;1.30;;;1.20;;
1987;SDS011;12775;46.994;15.498;2022-09-12T13:45:21;1.56;;;1.34;;
1987;SDS011;12775;46.994;15.498;2022-09-12T13:47:49;1.06;;;0.98;;
1987;SDS011;12775;46.994;15.498;2022-09-12T13:50:23;3.06;;;1.40;;
1987;SDS011;12775;46.994;15.498;2022-09-12T13:52:51;1.40;;;1.22;;
1987;SDS011;12775;46.994;15.498;2022-09-12T13:55:26;1.14;;;1.04;;
1987;SDS011;12775;46.994;15.498;2022-09-12T13:58:00;1.06;;;0.96;;
1987;SDS011;12775;46.994;15.498;2022-09-12T14:00:28;2.14;;;1.12;;
1987;SDS011;12775;46.994;15.498;2022-09-12T14:02:55;4.30;;;1.66;;
1987;SDS011;12775;46.994;15.498;2022-09-12T14:05:28;1.00;;;0.90;;
1987;SDS011;12775;46.994;15.498;2022-09-12T14:07:57;1.10;;;1.00;;
1987;SDS011;12775;46.994;15.498;2022-09-12T14:10:28;1.22;;;1.20;;
1987;SDS011;12775;46.994;15.498;2022-09-12T14:12:56;1.40;;;1.30;;
1987;SDS011;12775;46.994;15.498;2022-09-12T14:15:24;1.46;;;1.36;;
1987;SDS011;12775;46.994;15.498;2022-09-12T14:17:52;1.48;;;1.38;;
1987;SDS011;12775;46.994;15.498;2022-09-12T14:20:19;1.40;;;1.30;;
1987;SDS011;12775;46.994;15.498;2022-09-12T14:22:45;1.24;;;1.00;;
1987;SDS011;12775;46.994;15.498;2022-09-12T14:25:13;2.04;;;0.96;;
1987;SDS011;12775;46.994;15.498;2022-09-12T14:27:42;1.26;;;1.16;;
1987;SDS011;12775;46.994;15.498;2022-09-12T14:35:24;1.10;;;1.00;;
1987;SDS011;12775;46.994;15.498;2022-09-12T14:37:51;1.04;;;1.00;;
1987;SDS011;12775;46.994;15.498;2022-09-12T14:40:19;1.20;;;1.10;;
1987;SDS011;12775;46.994;15.498;2022-09-12T14:42:46;1.34;;;1.14;;
1987;SDS011;12775;46.994;15.498;2022-09-12T14:45:13;1.84;;;1.40;;
1987;SDS011;12775;46.994;15.498;2022-09-12T14:47:39;1.20;;;1.10;;
1987;SDS011;12775;46.994;15.498;2022-09-12T14:50:13;1.30;;;1.20;;
1987;SDS011;12775;46.994;15.498;2022-09-12T14:52:42;4.66;;;1.46;;
1987;SDS011;12775;46.994;15.498;2022-09-12T15:00:35;1.56;;;1.46;;
1987;SDS011;12775;46.994;15.498;2022-09-12T15:03:19;2.18;;;1.20;;
1987;SDS011;12775;46.994;15.498;2022-09-12T15:05:32;1.86;;;1.44;;
1987;SDS011;12775;46.994;15.498;2022-09-12T15:07:59;0.76;;;0.76;;
1987;SDS011;12775;46.994;15.498;2022-09-12T15:10:28;2.22;;;1.50;;
1987;SDS011;12775;46.994;15.498;2022-09-12T15:13:15;0.84;;;0.84;;
1987;SDS011;12775;46.994;15.498;2022-09-12T15:15:43;1.56;;;1.46;;
1987;SDS011;12775;46.994;15.498;2022-09-12T15:18:09;1.36;;;1.02;;
1987;SDS011;12775;46.994;15.498;2022-09-12T15:20:36;1.10;;;1.00;;
1987;SDS011;12775;46.994;15.498;2022-09-12T15:23:05;2.14;;;1.20;;
1987;SDS011;12775;46.994;15.498;2022-09-12T15:25:33;1.08;;;0.98;;
1987;SDS011;12775;46.994;15.498;2022-09-12T15:28:04;1.22;;;1.12;;
1987;SDS011;12775;46.994;15.498;2022-09-12T15:30:30;1.20;;;1.10;;
1987;SDS011;12775;46.994;15.498;2022-09-12T15:32:57;1.32;;;1.22;;
1987;SDS011;12775;46.994;15.498;2022-09-12T15:35:31;1.36;;;1.26;;
1987;SDS011;12775;46.994;15.498;2022-09-12T15:37:53;2.42;;;1.40;;
1987;SDS011;12775;46.994;15.498;2022-09-12T15:40:20;1.14;;;1.08;;
1987;SDS011;12775;46.994;15.498;2022-09-12T15:42:48;1.44;;;1.34;;
1987;SDS011;12775;46.994;15.498;2022-09-12T15:45:18;1.46;;;1.36;;
1987;SDS011;12775;46.994;15.498;2022-09-12T15:47:45;3.50;;;1.52;;
1987;SDS011;12775;46.994;15.498;2022-09-12T15:50:13;2.20;;;2.08;;
1987;SDS011;12775;46.994;15.498;2022-09-12T15:52:40;2.42;;;1.38;;
1987;SDS011;12775;46.994;15.498;2022-09-12T15:55:09;1.50;;;1.40;;
1987;SDS011;12775;46.994;15.498;2022-09-12T15:57:36;1.30;;;1.20;;
1987;SDS011;12775;46.994;15.498;2022-09-12T16:00:04;1.54;;;1.44;;
1987;SDS011;12775;46.994;15.498;2022-09-12T16:02:32;2.82;;;1.28;;
1987;SDS011;12775;46.994;15.498;2022-09-12T16:04:59;2.30;;;1.40;;
1987;SDS011;12775;46.994;15.498;2022-09-12T16:07:27;1.64;;;1.54;;
1987;SDS011;12775;46.994;15.498;2022-09-12T16:09:54;1.42;;;1.32;;
1987;SDS011;12775;46.994;15.498;2022-09-12T16:12:22;1.56;;;1.46;;
1987;SDS011;12775;46.994;15.498;2022-09-12T16:14:50;1.92;;;1.34;;